Partenope — ICCZ — position and weather

sailwx.info

Track history (hours):
 
Tides and Currents Weather Stations Pressure Air Temp Water Temp Dewpoint Dewpoint Depression Visibility Wind Speed Wind Dir Waves Ship Positions

Partenope

Last reported at 2015-Jan-27 23:05 UTC. Time now 2015-Jan-28 09:15 UTC.
Position N 40°13' E 014°29'.

Length 186 m; draft 6.2 m.

Type: Ship (hazmat cat A). MMSI: 247060500.

Date/timePositionNaut miles runAvg speedWind from/ knotsBaromVisibWave heightAir tempDewpointWater temp
2015-Jan-27 23:05N 40°13' E 014°29'1220.0
2015-Jan-27 22:28N 40°24' E 014°23'1819.7
2015-Jan-27 21:33N 40°41' E 014°16'3 0.3
2015-Jan-27 10:33N 40°44' E 014°17'1919.6
2015-Jan-27 09:33N 40°25' E 014°22'  
2015-Jan-24 22:19N 40°12' E 014°30'1620.3
2015-Jan-24 21:33N 40°26' E 014°22'2019.8
2015-Jan-24 20:33N 40°46' E 014°17'4 0.3
2015-Jan-24 07:06N 40°50' E 014°16'1018.0
2015-Jan-24 06:33N 40°40' E 014°17'12 0.4
2015-Jan-22 21:34N 40°28' E 014°20'2020.2
2015-Jan-22 20:33N 40°48' E 014°17'1 0.1
2015-Jan-22 10:16N 40°50' E 014°17'1418.8
2015-Jan-22 09:33N 40°36' E 014°17'2119.9
2015-Jan-22 08:31N 40°18' E 014°29'4 0.1
2015-Jan-20 22:32N 40°20' E 014°25'2020.0
2015-Jan-20 21:34N 40°39' E 014°16'3 0.2
2015-Jan-20 09:33N 40°42' E 014°17'2019.5
2015-Jan-20 08:33N 40°23' E 014°25'  
Track history (hours):
 
Tides and Currents Weather Stations Pressure Air Temp Water Temp Dewpoint Dewpoint Depression Visibility Wind Speed Wind Dir Waves Ship Positions

Partenope

Last reported at 2015-Jan-27 23:05 UTC. Time now 2015-Jan-28 09:15 UTC.
Position N 40°13' E 014°29'.

Length 186 m; draft 6.2 m.

Type: Ship (hazmat cat A). MMSI: 247060500.

Date/timePositionNaut miles runAvg speedWind from/ knotsBaromVisibWave heightAir tempDewpointWater temp
2015-Jan-27 23:05N 40°13' E 014°29'1220.0
2015-Jan-27 22:28N 40°24' E 014°23'1819.7
2015-Jan-27 21:33N 40°41' E 014°16'3 0.3
2015-Jan-27 10:33N 40°44' E 014°17'1919.6
2015-Jan-27 09:33N 40°25' E 014°22'  
2015-Jan-24 22:19N 40°12' E 014°30'1620.3
2015-Jan-24 21:33N 40°26' E 014°22'2019.8
2015-Jan-24 20:33N 40°46' E 014°17'4 0.3
2015-Jan-24 07:06N 40°50' E 014°16'1018.0
2015-Jan-24 06:33N 40°40' E 014°17'12 0.4
2015-Jan-22 21:34N 40°28' E 014°20'2020.2
2015-Jan-22 20:33N 40°48' E 014°17'1 0.1
2015-Jan-22 10:16N 40°50' E 014°17'1418.8
2015-Jan-22 09:33N 40°36' E 014°17'2119.9
2015-Jan-22 08:31N 40°18' E 014°29'4 0.1
2015-Jan-20 22:32N 40°20' E 014°25'2020.0
2015-Jan-20 21:34N 40°39' E 014°16'3 0.2
2015-Jan-20 09:33N 40°42' E 014°17'2019.5
2015-Jan-20 08:33N 40°23' E 014°25'  

Dump ship's entire track history